Terminal Aerodrome Forecast
Issued by NWS

Home | Current Version | Previous Version | Text Only | Print | Product List | Glossary On
Versions: 1 2 3 4 5 6 7 8 9 10 11 12 13 14 15 16
287
FTUS41 KCAR 290202 AAB
TAFFVE
TAF AMD
KFVE 290202Z 2902/2924 14009KT P6SM -SHRA SCT009 OVC040
     FM290400 18008KT P6SM OVC005
     FM291100 25005KT P6SM OVC012
     FM291500 31010G18KT P6SM BKN020
     FM291900 32010G18KT P6SM BKN040=

USA.gov is the U.S. government's official web portal to all federal, state and local government web resources and services.